Time;durP1;ratioP1;P1;durP2;ratioP2;P2;SDS_P1;SDS_P2;PMS_P1;PMS_P2;Temp;Humidity;BMP_temperature;BMP_pressure;BME280_temperature;BME280_humidity;BME280_pressure;Samples;Min_cycle;Max_cycle;Signal;HPM_P1;HPM_P2
2022/09/26 00:01:34;;;;;;;0.60;0.10;;;12.00;1.00;;;;;;5055277;28;20507;-75
2022/09/26 00:04:05;;;;;;;0.60;0.10;;;12.00;1.00;;;;;;5055269;28;20466;-74
2022/09/26 00:06:34;;;;;;;0.60;0.10;;;;;;;;;;5056619;28;20451;-74
2022/09/26 00:09:02;;;;;;;0.60;0.10;;;12.00;1.00;;;;;;5056657;28;20451;-74
2022/09/26 00:11:31;;;;;;;0.60;0.10;;;12.00;1.00;;;;;;5056531;28;20815;-74
2022/09/26 00:14:01;;;;;;;0.60;0.10;;;12.00;1.00;;;;;;5056106;28;20498;-75
2022/09/26 00:16:31;;;;;;;0.60;0.10;;;12.00;1.00;;;;;;5056096;28;20893;-74
2022/09/26 00:18:59;;;;;;;0.60;0.10;;;12.10;1.00;;;;;;5049521;28;20826;-75
2022/09/26 00:21:29;;;;;;;0.60;0.10;;;12.10;1.00;;;;;;5035757;28;20475;-74
2022/09/26 00:23:57;;;;;;;0.60;0.10;;;12.00;1.00;;;;;;5036260;28;20969;-74
2022/09/26 00:26:26;;;;;;;0.60;0.10;;;11.90;1.00;;;;;;5046839;28;20855;-74
2022/09/26 00:28:54;;;;;;;0.60;0.10;;;11.90;1.00;;;;;;5056283;28;20845;-74
2022/09/26 00:31:24;;;;;;;0.60;0.10;;;11.90;1.00;;;;;;5055997;28;20439;-74
2022/09/26 00:33:53;;;;;;;0.60;0.10;;;11.80;1.00;;;;;;5054617;28;20989;-74
2022/09/26 00:36:21;;;;;;;0.60;0.10;;;11.80;1.00;;;;;;5055589;28;20451;-74
2022/09/26 00:39:04;;;;;;;0.60;0.10;;;;;;;;;;5056383;28;20488;-74
2022/09/26 00:41:32;;;;;;;0.60;0.10;;;11.80;1.00;;;;;;5056477;28;21026;-73
2022/09/26 00:44:00;;;;;;;0.60;0.10;;;11.90;1.00;;;;;;5055813;28;20474;-73
2022/09/26 00:46:32;;;;;;;0.60;0.10;;;11.80;1.00;;;;;;5053914;28;20485;-74
2022/09/26 00:49:13;;;;;;;0.60;0.10;;;11.80;1.00;;;;;;5036073;28;21017;-74
2022/09/26 00:51:45;;;;;;;0.60;0.10;;;11.90;1.00;;;;;;5036272;28;20585;-75
2022/09/26 00:54:16;;;;;;;0.60;0.20;;;11.90;1.00;;;;;;5035585;28;20467;-75
2022/09/26 00:56:48;;;;;;;0.60;0.10;;;11.90;1.00;;;;;;5035704;28;20435;-75
2022/09/26 00:59:21;;;;;;;0.60;0.10;;;11.90;1.00;;;;;;5034944;28;20455;-75
2022/09/26 01:01:50;;;;;;;0.60;0.10;;;11.90;1.00;;;;;;5048856;28;20547;-74
2022/09/26 01:04:21;;;;;;;0.60;0.10;;;11.80;1.00;;;;;;5054748;28;20467;-75
2022/09/26 01:06:49;;;;;;;0.60;0.10;;;11.80;1.00;;;;;;5055143;28;20507;-75
2022/09/26 01:09:17;;;;;;;0.60;0.10;;;11.80;1.00;;;;;;5049080;28;20458;-75
2022/09/26 01:11:45;;;;;;;0.60;0.20;;;11.70;1.00;;;;;;5051631;28;20435;-75
2022/09/26 01:14:13;;;;;;;0.60;0.10;;;;;;;;;;5052179;28;20469;-75
2022/09/26 01:16:45;;;;;;;0.60;0.10;;;11.50;1.00;;;;;;5034844;28;20458;-75
2022/09/26 01:19:23;;;;;;;0.60;0.10;;;11.50;1.00;;;;;;5034860;28;20447;-75
2022/09/26 01:22:15;;;;;;;0.60;0.10;;;11.50;1.00;;;;;;5034231;28;20489;-75
2022/09/26 01:25:00;;;;;;;0.60;0.10;;;11.60;1.00;;;;;;5034833;28;20482;-75
2022/09/26 01:27:46;;;;;;;0.60;0.10;;;11.50;1.00;;;;;;5034390;28;20582;-75
2022/09/26 01:30:17;;;;;;;0.60;0.10;;;;;;;;;;5053284;28;20885;-75
2022/09/26 01:33:07;;;;;;;0.60;0.20;;;11.50;1.00;;;;;;5054240;28;20504;-75
2022/09/26 01:36:00;;;;;;;0.60;0.10;;;11.40;1.00;;;;;;5054385;28;20474;-75
2022/09/26 01:38:38;;;;;;;0.60;0.10;;;11.30;1.00;;;;;;5052766;28;20450;-74
2022/09/26 01:41:20;;;;;;;0.87;0.40;;;11.10;1.00;;;;;;5053648;28;20478;-74
2022/09/26 01:43:56;;;;;;;0.60;0.10;;;11.00;1.00;;;;;;5037186;28;20483;-73
2022/09/26 01:46:34;;;;;;;0.60;0.10;;;11.00;1.00;;;;;;5033815;28;20501;-73
2022/09/26 01:49:09;;;;;;;0.60;0.10;;;11.00;1.00;;;;;;5033674;28;20459;-74
2022/09/26 01:51:45;;;;;;;0.60;0.10;;;11.20;1.00;;;;;;5034052;28;20443;-74
2022/09/26 01:54:16;;;;;;;1.23;0.40;;;;;;;;;;5033566;28;20873;-75
2022/09/26 01:56:48;;;;;;;0.70;0.40;;;11.20;1.00;;;;;;5033508;28;20855;-75
2022/09/26 01:59:20;;;;;;;0.60;0.10;;;11.20;1.00;;;;;;5033510;28;21011;-75
2022/09/26 02:01:52;;;;;;;0.60;0.10;;;11.10;1.00;;;;;;5033324;28;20483;-75
2022/09/26 02:04:26;;;;;;;0.80;0.47;;;11.10;1.00;;;;;;5033459;28;20467;-74
2022/09/26 02:07:00;;;;;;;0.60;0.10;;;11.00;1.00;;;;;;5033829;28;20493;-75
2022/09/26 02:09:37;;;;;;;0.60;0.10;;;11.10;1.00;;;;;;5032937;28;20446;-74
2022/09/26 02:12:08;;;;;;;0.60;0.10;;;11.10;1.00;;;;;;5050782;28;20450;-75
2022/09/26 02:14:40;;;;;;;0.97;0.57;;;11.00;1.00;;;;;;5053609;28;20469;-75
2022/09/26 02:17:12;;;;;;;0.60;0.10;;;11.00;1.00;;;;;;5053598;28;20443;-75
2022/09/26 02:19:46;;;;;;;0.60;0.10;;;11.00;1.00;;;;;;5053044;28;20481;-75
2022/09/26 02:22:14;;;;;;;0.60;0.10;;;11.00;1.00;;;;;;5053145;28;20478;-75
2022/09/26 02:24:42;;;;;;;0.77;0.77;;;11.00;1.00;;;;;;5053126;28;20474;-74
2022/09/26 02:27:10;;;;;;;0.60;0.10;;;11.10;1.00;;;;;;5053903;28;20485;-74
2022/09/26 02:29:39;;;;;;;0.60;0.10;;;11.10;1.00;;;;;;5053843;28;20537;-74
2022/09/26 02:32:14;;;;;;;0.60;0.10;;;11.10;1.00;;;;;;5052883;28;21129;-74
2022/09/26 02:34:44;;;;;;;0.73;0.73;;;11.10;1.00;;;;;;5052397;28;20516;-74
2022/09/26 02:37:14;;;;;;;0.60;0.10;;;11.10;1.00;;;;;;5052865;28;20455;-74
2022/09/26 02:39:43;;;;;;;0.60;0.10;;;11.10;1.00;;;;;;5034355;28;20517;-74
2022/09/26 02:42:20;;;;;;;0.60;0.10;;;11.10;1.00;;;;;;5033030;28;20533;-75
2022/09/26 02:45:09;;;;;;;0.60;0.10;;;11.00;1.00;;;;;;5043406;28;20988;-75
2022/09/26 02:48:12;;;;;;;0.60;0.10;;;10.90;1.00;;;;;;5052777;28;20447;-74
2022/09/26 02:50:55;;;;;;;0.60;0.10;;;11.00;1.00;;;;;;5048373;28;20961;-75
2022/09/26 02:53:42;;;;;;;0.60;0.10;;;10.90;1.00;;;;;;5052413;28;20439;-74
2022/09/26 02:56:15;;;;;;;0.60;0.10;;;;;;;;;;5053133;28;20470;-74
2022/09/26 02:58:51;;;;;;;0.60;0.10;;;10.90;1.00;;;;;;5043282;28;20448;-74
2022/09/26 03:01:26;;;;;;;0.60;0.20;;;10.80;1.00;;;;;;5033564;28;20447;-74
2022/09/26 03:04:02;;;;;;;0.60;0.10;;;10.70;1.00;;;;;;5032839;28;21064;-74
2022/09/26 03:06:31;;;;;;;0.60;0.20;;;;;;;;;;5033507;28;20450;-74
2022/09/26 03:09:01;;;;;;;0.50;0.10;;;10.70;1.00;;;;;;5033546;28;20570;-74
2022/09/26 03:11:29;;;;;;;0.60;0.10;;;;;;;;;;5045319;28;20439;-74
2022/09/26 03:13:58;;;;;;;0.70;0.30;;;10.60;1.00;;;;;;5033184;28;20476;-74
2022/09/26 03:16:29;;;;;;;0.60;0.10;;;10.60;1.00;;;;;;5033372;28;20799;-74
2022/09/26 03:19:03;;;;;;;0.60;0.30;;;10.60;1.00;;;;;;5033717;28;20481;-75
2022/09/26 03:21:31;;;;;;;0.60;0.10;;;10.40;1.00;;;;;;5035200;28;20443;-73
2022/09/26 03:24:03;;;;;;;0.50;0.10;;;10.40;1.00;;;;;;5037948;28;20499;-75
2022/09/26 03:26:33;;;;;;;0.60;0.20;;;10.30;1.00;;;;;;5037191;28;20456;-74
2022/09/26 03:29:01;;;;;;;0.70;0.60;;;10.30;3.10;;;;;;5038190;28;20447;-75
2022/09/26 03:31:30;;;;;;;0.50;0.10;;;10.30;4.70;;;;;;5037696;28;20451;-74
2022/09/26 03:33:59;;;;;;;0.60;0.10;;;10.20;6.60;;;;;;5037837;28;20471;-74
2022/09/26 03:36:28;;;;;;;0.60;0.10;;;10.20;8.80;;;;;;5038224;28;20447;-74
2022/09/26 03:38:56;;;;;;;0.60;0.30;;;10.20;9.00;;;;;;5037609;28;20443;-74
2022/09/26 03:41:24;;;;;;;0.60;0.10;;;8.40;12.00;;;;;;5055377;28;20945;-75
2022/09/26 03:43:56;;;;;;;0.60;0.10;;;10.30;14.70;;;;;;5057750;28;20467;-75
2022/09/26 03:46:24;;;;;;;0.50;0.10;;;10.40;15.00;;;;;;5055147;28;20964;-74
2022/09/26 03:48:51;;;;;;;0.97;0.63;;;10.50;15.00;;;;;;5055117;28;20450;-73
2022/09/26 03:51:20;;;;;;;0.60;0.30;;;10.50;12.40;;;;;;5055230;28;20453;-74
2022/09/26 03:53:49;;;;;;;0.50;0.10;;;10.50;9.70;;;;;;5055271;28;20461;-73
2022/09/26 03:56:18;;;;;;;0.50;0.10;;;10.50;11.00;;;;;;5055461;28;20450;-74
2022/09/26 03:58:47;;;;;;;0.60;0.10;;;10.40;9.20;;;;;;5055222;28;20449;-74
2022/09/26 04:01:18;;;;;;;0.70;0.53;;;10.40;10.20;;;;;;5056190;28;20500;-74
2022/09/26 04:03:47;;;;;;;0.57;0.20;;;10.40;11.50;;;;;;5056353;28;20469;-73
2022/09/26 04:06:20;;;;;;;0.50;0.20;;;10.40;11.30;;;;;;5056096;28;20933;-73
2022/09/26 04:08:49;;;;;;;0.50;0.10;;;10.40;12.10;;;;;;5040920;28;21138;-74
2022/09/26 04:11:20;;;;;;;0.50;0.20;;;10.40;13.80;;;;;;5035371;28;20477;-74
2022/09/26 04:13:49;;;;;;;0.60;0.20;;;10.50;11.80;;;;;;5035480;28;20463;-74
2022/09/26 04:16:21;;;;;;;0.50;0.10;;;10.50;9.00;;;;;;5034888;28;20442;-74
2022/09/26 04:18:49;;;;;;;0.80;0.57;;;10.50;10.90;;;;;;5035041;28;20473;-74
2022/09/26 04:21:17;;;;;;;0.60;0.20;;;10.40;11.30;;;;;;5035194;28;20558;-73
2022/09/26 04:23:46;;;;;;;0.97;0.70;;;10.40;13.20;;;;;;5036432;28;20479;-73
2022/09/26 04:26:16;;;;;;;4.00;2.83;;;10.30;15.00;;;;;;5036256;28;20451;-73
2022/09/26 04:28:53;;;;;;;3.40;0.40;;;10.30;21.10;;;;;;5035248;28;20515;-74
2022/09/26 04:31:21;;;;;;;1.53;1.43;;;10.30;25.50;;;;;;5046042;28;20832;-73
2022/09/26 04:33:50;;;;;;;0.50;0.10;;;10.30;28.10;;;;;;5053425;28;20508;-73
2022/09/26 04:36:18;;;;;;;0.50;0.10;;;10.40;30.40;;;;;;5043250;28;20447;-74
2022/09/26 04:38:47;;;;;;;0.50;0.10;;;10.40;32.70;;;;;;5048156;28;20454;-73
2022/09/26 04:41:17;;;;;;;0.60;0.10;;;10.50;30.00;;;;;;5045099;28;20472;-75
2022/09/26 04:43:45;;;;;;;0.50;0.20;;;10.40;27.40;;;;;;5034152;28;20511;-74
2022/09/26 04:46:15;;;;;;;1.03;0.53;;;10.40;27.80;;;;;;5034705;28;20868;-74
2022/09/26 04:48:49;;;;;;;1.43;1.33;;;10.40;28.00;;;;;;5034103;28;20443;-74
2022/09/26 04:51:18;;;;;;;1.07;0.97;;;10.40;29.90;;;;;;5034175;28;20493;-74
2022/09/26 04:53:47;;;;;;;0.60;0.30;;;10.40;32.10;;;;;;5034139;28;20502;-73
2022/09/26 04:56:16;;;;;;;1.63;1.10;;;10.40;32.00;;;;;;5033802;28;21133;-73
2022/09/26 04:58:45;;;;;;;2.10;0.93;;;;;;;;;;5033934;28;20440;-74
2022/09/26 05:01:15;;;;;;;0.60;0.20;;;10.40;33.40;;;;;;5034111;28;20454;-73
2022/09/26 05:03:43;;;;;;;0.80;0.20;;;10.40;35.10;;;;;;5034457;28;20529;-73
2022/09/26 05:06:12;;;;;;;0.60;0.10;;;10.40;36.00;;;;;;5052564;28;20474;-74
2022/09/26 05:08:43;;;;;;;1.07;0.57;;;10.40;32.20;;;;;;5053719;28;20443;-74
2022/09/26 05:11:13;;;;;;;0.50;0.10;;;10.40;32.30;;;;;;5053836;28;20811;-74
2022/09/26 05:13:42;;;;;;;1.23;0.30;;;10.40;28.40;;;;;;5053628;28;20447;-73
2022/09/26 05:16:11;;;;;;;0.53;0.10;;;10.30;29.10;;;;;;5053664;28;20487;-73
2022/09/26 05:18:39;;;;;;;0.57;0.10;;;10.30;30.00;;;;;;5037335;28;20538;-73
2022/09/26 05:21:07;;;;;;;0.50;0.10;;;10.30;30.70;;;;;;5034329;28;20443;-73
2022/09/26 05:26:27;;;;;;;1.57;0.73;;;10.20;32.90;;;;;;5033837;28;20493;-72
2022/09/26 05:29:00;;;;;;;0.70;0.43;;;10.20;32.00;;;;;;5033730;28;20447;-73
2022/09/26 05:31:35;;;;;;;0.50;0.10;;;10.20;36.40;;;;;;5034876;28;20898;-75
2022/09/26 05:34:04;;;;;;;0.57;0.10;;;10.20;38.10;;;;;;5045202;28;20541;-76
2022/09/26 05:36:32;;;;;;;0.50;0.10;;;10.20;40.10;;;;;;5053589;28;20443;-74
2022/09/26 05:39:00;;;;;;;0.70;0.20;;;10.30;36.00;;;;;;5053380;28;20449;-74
2022/09/26 05:41:30;;;;;;;0.60;0.20;;;10.30;25.00;;;;;;5053127;28;20442;-75
2022/09/26 05:43:58;;;;;;;0.70;0.40;;;10.20;21.40;;;;;;5051304;28;20494;-74
2022/09/26 05:46:27;;;;;;;0.53;0.10;;;10.20;23.10;;;;;;5052103;28;20447;-73
2022/09/26 05:48:56;;;;;;;0.50;0.10;;;10.20;24.80;;;;;;5048100;28;20505;-73
2022/09/26 05:51:23;;;;;;;0.50;0.20;;;10.30;18.50;;;;;;5045407;28;20497;-74
2022/09/26 05:53:52;;;;;;;0.70;0.60;;;10.40;17.30;;;;;;5032654;28;20513;-75
2022/09/26 05:56:20;;;;;;;0.50;0.10;;;10.40;16.30;;;;;;5046871;28;20481;-75
2022/09/26 05:58:50;;;;;;;0.60;0.10;;;10.40;15.00;;;;;;5052241;28;20446;-76
2022/09/26 06:01:18;;;;;;;0.70;0.30;;;10.40;15.00;;;;;;5050004;28;20522;-74
2022/09/26 06:03:47;;;;;;;3.03;1.53;;;10.40;15.10;;;;;;5049788;28;20505;-75
2022/09/26 06:06:17;;;;;;;0.60;0.30;;;10.40;16.60;;;;;;5053601;28;20656;-74
2022/09/26 06:08:46;;;;;;;0.60;0.30;;;;;;;;;;5052335;28;20446;-74
2022/09/26 06:11:15;;;;;;;0.50;0.20;;;10.40;18.80;;;;;;5055261;28;20450;-79
2022/09/26 06:13:45;;;;;;;1.67;0.50;;;10.40;20.80;;;;;;5053305;28;20492;-73
2022/09/26 06:16:17;;;;;;;1.27;1.17;;;10.40;22.70;;;;;;5050377;28;20459;-74
2022/09/26 06:18:46;;;;;;;0.70;0.50;;;10.60;22.40;;;;;;5051028;28;20457;-73
2022/09/26 06:21:15;;;;;;;0.50;0.10;;;10.40;21.70;;;;;;5051616;28;20512;-73
2022/09/26 06:23:43;;;;;;;1.67;1.07;;;10.40;24.70;;;;;;5051765;28;20508;-73
2022/09/26 06:26:16;;;;;;;2.40;1.30;;;10.40;25.90;;;;;;5052245;28;20520;-74
2022/09/26 06:28:44;;;;;;;0.50;0.10;;;10.40;31.90;;;;;;5052921;28;20467;-74
2022/09/26 06:31:15;;;;;;;1.10;0.63;;;10.40;33.00;;;;;;5044996;28;20508;-73
2022/09/26 06:33:43;;;;;;;0.50;0.20;;;10.40;35.30;;;;;;5031984;28;20486;-75
2022/09/26 06:36:12;;;;;;;0.50;0.20;;;10.40;37.30;;;;;;5032700;28;20452;-74
2022/09/26 06:38:41;;;;;;;1.47;0.37;;;10.40;39.10;;;;;;5044195;28;20789;-74
2022/09/26 06:41:09;;;;;;;0.60;0.20;;;10.50;39.20;;;;;;5052222;28;20449;-74
2022/09/26 06:43:38;;;;;;;0.57;0.10;;;10.60;34.60;;;;;;5051756;28;20486;-75
2022/09/26 06:46:08;;;;;;;0.50;0.10;;;10.50;36.20;;;;;;5051837;28;20948;-74
2022/09/26 06:48:37;;;;;;;0.70;0.50;;;10.50;30.40;;;;;;5033811;28;20829;-74
2022/09/26 06:51:05;;;;;;;0.50;0.10;;;10.50;32.90;;;;;;5031832;28;20506;-73
2022/09/26 06:53:34;;;;;;;1.53;1.37;;;10.50;28.60;;;;;;5031612;28;20493;-74
2022/09/26 06:56:03;;;;;;;1.83;1.33;;;10.50;26.40;;;;;;5032689;28;20451;-73
2022/09/26 06:58:33;;;;;;;0.50;0.10;;;10.40;26.90;;;;;;5045192;28;20481;-74
2022/09/26 07:01:01;;;;;;;0.50;0.10;;;10.40;29.00;;;;;;5055573;28;20813;-74
2022/09/26 07:03:29;;;;;;;0.70;0.70;;;10.50;33.00;;;;;;5055506;28;20473;-74
2022/09/26 07:05:59;;;;;;;0.50;0.10;;;10.60;35.10;;;;;;5056040;28;20462;-75
2022/09/26 07:08:27;;;;;;;0.60;0.40;;;10.60;34.00;;;;;;5038198;28;20450;-72
2022/09/26 07:11:15;;;;;;;0.60;0.20;;;10.70;26.90;;;;;;5047521;28;20456;-74
2022/09/26 07:14:03;;;;;;;0.53;0.10;;;;;;;;;;5053696;28;20469;-74
2022/09/26 07:16:31;;;;;;;0.60;0.10;;;10.90;23.90;;;;;;5056039;28;20575;-74
2022/09/26 07:18:59;;;;;;;0.70;0.30;;;11.00;19.00;;;;;;5055443;28;20500;-74
2022/09/26 07:21:28;;;;;;;0.60;0.20;;;11.10;12.70;;;;;;5056173;28;20941;-74
2022/09/26 07:23:57;;;;;;;0.60;0.20;;;11.20;1.00;;;;;;5055720;28;20478;-75
2022/09/26 07:26:25;;;;;;;3.00;1.70;;;10.60;1.00;;;;;;5055093;28;20491;-75
2022/09/26 07:28:52;;;;;;;0.60;0.17;;;11.20;1.00;;;;;;5055434;28;20453;-76
2022/09/26 07:31:22;;;;;;;3.00;2.83;;;11.30;1.00;;;;;;5055907;28;20442;-76
2022/09/26 07:33:51;;;;;;;1.60;1.13;;;11.40;1.00;;;;;;5054982;28;20462;-75
2022/09/26 07:36:20;;;;;;;0.60;0.10;;;11.40;1.00;;;;;;5036320;28;20976;-74
2022/09/26 07:38:49;;;;;;;4.97;2.30;;;11.40;1.00;;;;;;5034932;28;20455;-75
2022/09/26 07:41:18;;;;;;;0.53;0.10;;;11.30;1.00;;;;;;5035110;28;20455;-74
2022/09/26 07:43:46;;;;;;;0.50;0.20;;;;;;;;;;5034532;28;20566;-75
2022/09/26 07:52:05;;;;;;;1.97;0.97;;;11.50;1.00;;;;;;5054895;28;20446;-74
2022/09/26 07:54:35;;;;;;;0.70;0.40;;;11.50;1.00;;;;;;5056486;28;20463;-74
2022/09/26 07:57:04;;;;;;;0.60;0.10;;;11.50;1.00;;;;;;5056768;28;20434;-73
2022/09/26 07:59:34;;;;;;;0.60;0.10;;;;;;;;;;5055435;28;20465;-74
2022/09/26 08:02:02;;;;;;;2.00;1.60;;;11.60;1.00;;;;;;5054581;28;20447;-76
2022/09/26 08:04:30;;;;;;;0.70;0.30;;;11.70;1.00;;;;;;5054751;28;20486;-73
2022/09/26 08:06:58;;;;;;;0.60;0.10;;;11.70;1.00;;;;;;5054255;28;20446;-72
2022/09/26 08:09:27;;;;;;;0.60;0.10;;;11.80;1.00;;;;;;5051007;28;20458;-75
2022/09/26 08:11:56;;;;;;;0.83;0.77;;;11.90;1.00;;;;;;5054043;28;20936;-74
2022/09/26 08:14:24;;;;;;;3.43;0.90;;;12.00;1.00;;;;;;5051239;28;20565;-75
2022/09/26 08:16:55;;;;;;;1.03;0.93;;;;;;;;;;5053008;28;20493;-75
2022/09/26 08:19:23;;;;;;;0.60;0.20;;;12.00;1.00;;;;;;5046212;28;20450;-74
2022/09/26 08:21:51;;;;;;;1.80;1.53;;;11.90;1.00;;;;;;5050992;28;20509;-74
2022/09/26 08:24:19;;;;;;;0.93;0.80;;;11.80;1.00;;;;;;5047557;28;20533;-75
2022/09/26 08:26:47;;;;;;;1.90;1.80;;;11.80;1.00;;;;;;5049903;28;20511;-75
2022/09/26 08:29:16;;;;;;;0.60;0.10;;;11.70;1.00;;;;;;5050137;28;20466;-75
2022/09/26 08:31:46;;;;;;;0.90;0.50;;;11.60;1.00;;;;;;5042786;28;20462;-74
2022/09/26 08:34:14;;;;;;;2.80;2.17;;;11.60;1.00;;;;;;5048085;28;20462;-74
2022/09/26 08:36:42;;;;;;;1.30;0.60;;;11.60;1.00;;;;;;5050765;28;20443;-74
2022/09/26 08:39:10;;;;;;;2.70;2.50;;;11.40;1.00;;;;;;5052537;28;20462;-73
2022/09/26 08:41:52;;;;;;;0.60;0.10;;;11.50;1.00;;;;;;5052431;28;20508;-74
2022/09/26 08:44:37;;;;;;;0.60;0.10;;;11.70;1.00;;;;;;5053031;28;20478;-75
2022/09/26 08:47:16;;;;;;;0.60;0.10;;;11.80;1.00;;;;;;5039444;28;20457;-73
2022/09/26 08:49:58;;;;;;;1.47;1.37;;;11.80;1.00;;;;;;5054698;28;20461;-74
2022/09/26 08:52:32;;;;;;;0.60;0.10;;;11.80;1.00;;;;;;5054233;28;20493;-74
2022/09/26 08:55:05;;;;;;;1.00;0.90;;;11.90;1.00;;;;;;5050534;28;20478;-74
2022/09/26 08:57:40;;;;;;;0.97;0.87;;;12.10;1.00;;;;;;5051283;28;20500;-76
2022/09/26 09:00:18;;;;;;;0.60;0.10;;;12.10;1.00;;;;;;5039685;28;20438;-74
2022/09/26 09:02:59;;;;;;;1.33;0.63;;;12.30;1.00;;;;;;5035253;28;20447;-75
2022/09/26 09:05:31;;;;;;;0.60;0.50;;;12.40;1.00;;;;;;5046722;28;20512;-74
2022/09/26 09:08:06;;;;;;;0.60;0.20;;;12.30;1.00;;;;;;5047778;28;20538;-73
2022/09/26 09:10:43;;;;;;;0.60;0.10;;;12.50;1.00;;;;;;5052785;28;20497;-74
2022/09/26 09:13:23;;;;;;;0.63;0.33;;;12.50;1.00;;;;;;5053391;28;20446;-74
2022/09/26 09:16:03;;;;;;;0.60;0.10;;;;;;;;;;5053975;28;20466;-73
2022/09/26 09:18:39;;;;;;;0.60;0.10;;;12.60;1.00;;;;;;5053152;28;20466;-73
2022/09/26 09:21:17;;;;;;;0.60;0.33;;;12.60;1.00;;;;;;5053592;28;20438;-72
2022/09/26 09:23:59;;;;;;;0.70;0.20;;;12.60;1.00;;;;;;5033260;28;20447;-73
2022/09/26 09:26:33;;;;;;;0.60;0.10;;;12.60;1.00;;;;;;5033398;28;20487;-73
2022/09/26 09:29:43;;;;;;;0.80;0.33;;;12.70;1.00;;;;;;5042326;28;20438;-72
2022/09/26 09:32:25;;;;;;;1.00;0.57;;;12.70;1.00;;;;;;5046135;28;20447;-72
2022/09/26 09:34:54;;;;;;;0.60;0.10;;;12.70;1.00;;;;;;5052870;28;20466;-71
2022/09/26 09:37:27;;;;;;;0.60;0.20;;;12.80;1.00;;;;;;5035453;28;20463;-73
2022/09/26 09:39:56;;;;;;;0.60;0.10;;;12.80;1.00;;;;;;5033235;28;20446;-73
2022/09/26 09:42:33;;;;;;;0.60;0.10;;;13.10;1.00;;;;;;5032804;28;21000;-73
2022/09/26 09:45:06;;;;;;;0.60;0.10;;;13.10;1.00;;;;;;5032368;28;20478;-73
2022/09/26 09:47:38;;;;;;;0.60;0.10;;;13.20;1.00;;;;;;5033118;28;20527;-73
2022/09/26 09:50:14;;;;;;;0.60;0.10;;;13.30;1.00;;;;;;5032738;28;20977;-74
2022/09/26 09:52:55;;;;;;;0.60;0.10;;;13.40;1.00;;;;;;5037857;28;20798;-72
2022/09/26 09:55:37;;;;;;;0.60;0.20;;;13.50;1.00;;;;;;5052476;28;20536;-73
2022/09/26 09:58:40;;;;;;;6.03;5.57;;;13.70;1.00;;;;;;5052739;28;20442;-73
2022/09/26 10:01:18;;;;;;;1.27;0.40;;;13.70;1.00;;;;;;5052977;28;20445;-73
2022/09/26 10:03:55;;;;;;;0.60;0.10;;;13.80;1.00;;;;;;5042663;28;20520;-74
2022/09/26 10:06:27;;;;;;;0.60;0.10;;;13.90;1.00;;;;;;5041112;28;20977;-74
2022/09/26 10:09:17;;;;;;;1.00;0.30;;;;;;;;;;5044758;28;20443;-75
2022/09/26 10:12:09;;;;;;;0.60;0.20;;;;;;;;;;5042803;28;20848;-77
2022/09/26 10:14:44;;;;;;;1.00;0.40;;;14.20;1.00;;;;;;5043325;28;20464;-75
2022/09/26 10:17:20;;;;;;;0.60;0.37;;;14.40;1.00;;;;;;5046957;28;20434;-76
2022/09/26 10:19:49;;;;;;;0.60;0.10;;;;;;;;;;5046149;28;20811;-75
2022/09/26 10:22:24;;;;;;;0.60;0.10;;;14.50;1.00;;;;;;5044984;28;20443;-77
2022/09/26 10:24:59;;;;;;;0.60;0.20;;;14.70;1.00;;;;;;5042722;28;20458;-75
2022/09/26 10:27:35;;;;;;;0.70;0.40;;;14.70;1.00;;;;;;5042436;28;20485;-74
2022/09/26 10:30:19;;;;;;;0.60;0.10;;;14.80;1.00;;;;;;5033829;28;20447;-75
2022/09/26 10:32:50;;;;;;;0.60;0.10;;;15.00;1.00;;;;;;5050773;28;20471;-74
2022/09/26 10:35:28;;;;;;;0.60;0.30;;;14.00;1.00;;;;;;5041749;28;20473;-74
2022/09/26 10:38:00;;;;;;;0.60;0.10;;;15.10;1.00;;;;;;5041515;28;20435;-76
2022/09/26 10:40:47;;;;;;;0.60;0.20;;;15.00;1.00;;;;;;5047903;28;20751;-75
2022/09/26 10:43:29;;;;;;;0.60;0.10;;;15.00;1.00;;;;;;5052356;28;20477;-75
2022/09/26 10:46:04;;;;;;;0.63;0.33;;;14.90;1.00;;;;;;5051835;28;20488;-74
2022/09/26 10:48:46;;;;;;;0.60;0.17;;;14.80;1.00;;;;;;5052909;28;20446;-76
2022/09/26 10:51:20;;;;;;;0.60;0.20;;;14.70;1.00;;;;;;5052612;28;21016;-75
2022/09/26 10:53:51;;;;;;;0.60;0.10;;;14.50;1.00;;;;;;5052524;28;20442;-75
2022/09/26 10:56:25;;;;;;;0.60;0.10;;;14.50;1.00;;;;;;5053157;28;20492;-73
2022/09/26 10:58:58;;;;;;;0.87;0.37;;;14.50;1.00;;;;;;5057159;28;20481;-73
2022/09/26 11:01:29;;;;;;;0.60;0.20;;;14.40;1.00;;;;;;5056411;28;20458;-73
2022/09/26 11:04:10;;;;;;;0.60;0.10;;;14.40;1.00;;;;;;5055269;28;20509;-74
2022/09/26 11:06:43;;;;;;;0.60;0.20;;;14.40;1.00;;;;;;5054940;28;21046;-74
2022/09/26 11:09:19;;;;;;;0.60;0.10;;;14.60;1.00;;;;;;5055448;28;20447;-73
2022/09/26 11:11:49;;;;;;;0.87;0.30;;;14.70;1.00;;;;;;5052334;28;20442;-74
2022/09/26 11:14:27;;;;;;;0.60;0.27;;;14.70;1.00;;;;;;5051068;28;20553;-75
2022/09/26 11:16:57;;;;;;;0.70;0.37;;;14.80;1.00;;;;;;5052102;28;20480;-75
2022/09/26 11:19:32;;;;;;;25.63;10.50;;;14.80;1.00;;;;;;5051548;28;20451;-74
2022/09/26 11:22:10;;;;;;;0.70;0.30;;;14.80;1.00;;;;;;5051961;28;20442;-75
2022/09/26 11:24:46;;;;;;;0.80;0.30;;;15.00;1.00;;;;;;5051136;28;20510;-74
2022/09/26 11:27:26;;;;;;;0.60;0.20;;;15.10;1.00;;;;;;5048961;28;20833;-75
2022/09/26 11:30:01;;;;;;;0.60;0.40;;;15.20;1.00;;;;;;5058453;28;20461;-73
2022/09/26 11:32:31;;;;;;;0.60;0.10;;;15.30;1.00;;;;;;5050365;28;20462;-74
2022/09/26 11:35:02;;;;;;;0.60;0.10;;;15.20;1.00;;;;;;5032292;28;20599;-74
2022/09/26 11:37:44;;;;;;;0.60;0.20;;;15.20;1.00;;;;;;5032360;28;20443;-75
2022/09/26 11:40:31;;;;;;;0.60;0.10;;;15.10;1.00;;;;;;5032240;28;20507;-74
2022/09/26 11:43:18;;;;;;;0.60;0.10;;;15.10;1.00;;;;;;5034290;28;20787;-73
2022/09/26 11:46:02;;;;;;;0.60;0.10;;;15.20;1.00;;;;;;5050508;28;20498;-74
2022/09/26 11:48:43;;;;;;;0.60;0.40;;;15.20;1.00;;;;;;5054801;28;20520;-75
2022/09/26 11:51:22;;;;;;;0.60;0.20;;;15.00;1.00;;;;;;5055070;28;20435;-73
2022/09/26 11:54:19;;;;;;;0.60;0.10;;;15.00;1.00;;;;;;5055779;28;20473;-75
2022/09/26 11:57:00;;;;;;;0.60;0.20;;;14.90;1.00;;;;;;5054256;28;20441;-76
2022/09/26 11:59:51;;;;;;;0.90;0.73;;;14.90;1.00;;;;;;5053815;28;20522;-75
2022/09/26 12:02:45;;;;;;;0.60;0.20;;;14.90;1.00;;;;;;5050443;28;20465;-76
2022/09/26 12:05:24;;;;;;;0.60;0.10;;;15.00;1.00;;;;;;5046767;28;21001;-74
2022/09/26 12:08:10;;;;;;;0.90;0.40;;;15.20;1.00;;;;;;5052245;28;20505;-74
2022/09/26 12:10:52;;;;;;;0.60;0.10;;;15.20;1.00;;;;;;5051439;28;20945;-74
2022/09/26 12:13:33;;;;;;;0.60;0.10;;;15.30;1.00;;;;;;5047647;28;20835;-74
2022/09/26 12:16:11;;;;;;;0.77;0.30;;;15.30;1.00;;;;;;5035271;28;20962;-74
2022/09/26 12:18:47;;;;;;;0.60;0.10;;;15.30;1.00;;;;;;5033849;28;20439;-74
2022/09/26 12:21:26;;;;;;;0.60;0.10;;;15.30;1.00;;;;;;5038077;28;20816;-74
2022/09/26 12:24:04;;;;;;;0.70;0.20;;;15.50;1.00;;;;;;5051177;28;20810;-75
2022/09/26 12:26:42;;;;;;;0.60;0.10;;;15.40;1.00;;;;;;5049446;28;20481;-74
2022/09/26 12:29:22;;;;;;;0.60;0.10;;;15.40;1.00;;;;;;5054344;28;20438;-74
2022/09/26 12:32:13;;;;;;;0.60;0.10;;;15.50;1.00;;;;;;5052496;28;20447;-76
2022/09/26 12:34:56;;;;;;;0.60;0.10;;;15.60;1.00;;;;;;5055132;28;20875;-76
2022/09/26 12:37:47;;;;;;;0.60;0.10;;;15.70;1.00;;;;;;5051167;28;20509;-76
2022/09/26 12:40:33;;;;;;;0.60;0.10;;;15.70;1.00;;;;;;5036554;28;20444;-75
2022/09/26 12:43:30;;;;;;;0.60;0.20;;;15.70;1.00;;;;;;5061111;28;20474;-75
2022/09/26 12:46:10;;;;;;;0.60;0.20;;;15.70;1.00;;;;;;5054628;28;20459;-76
2022/09/26 12:48:53;;;;;;;0.60;0.30;;;15.60;1.00;;;;;;5054347;28;20476;-75
2022/09/26 12:51:27;;;;;;;0.60;0.27;;;15.60;1.00;;;;;;5052424;28;20504;-74
2022/09/26 12:54:31;;;;;;;0.60;0.20;;;15.50;1.00;;;;;;5055499;28;20550;-76
2022/09/26 12:57:07;;;;;;;0.67;0.27;;;15.50;1.00;;;;;;5055599;28;20769;-75
2022/09/26 13:00:08;;;;;;;0.60;0.17;;;15.40;1.00;;;;;;5055702;28;20511;-74
2022/09/26 13:03:15;;;;;;;0.60;0.17;;;15.40;1.00;;;;;;5055720;28;20932;-75
2022/09/26 13:06:02;;;;;;;0.70;0.20;;;15.30;1.00;;;;;;4977280;28;20462;-75
2022/09/26 13:08:46;;;;;;;0.60;0.20;;;15.30;1.00;;;;;;5035256;28;20507;-74
2022/09/26 13:11:21;;;;;;;0.60;0.20;;;15.30;1.00;;;;;;5045164;28;20838;-74
2022/09/26 13:14:13;;;;;;;0.60;0.10;;;15.30;1.00;;;;;;5054553;28;20932;-76
2022/09/26 13:16:55;;;;;;;0.60;0.30;;;15.20;1.00;;;;;;5055735;28;20501;-74
2022/09/26 13:19:27;;;;;;;0.60;0.20;;;;;;;;;;5056245;28;20446;-75
2022/09/26 13:22:01;;;;;;;0.60;0.10;;;15.00;1.00;;;;;;5057548;28;20446;-74
2022/09/26 13:24:39;;;;;;;0.70;0.50;;;15.10;1.00;;;;;;5057067;28;20508;-74
2022/09/26 13:27:15;;;;;;;0.60;0.20;;;15.10;1.00;;;;;;5057071;28;20528;-76
2022/09/26 13:29:47;;;;;;;0.60;0.20;;;15.00;1.00;;;;;;5057142;28;20446;-76
2022/09/26 13:32:23;;;;;;;0.70;0.40;;;14.90;1.00;;;;;;5056872;28;20453;-75
2022/09/26 13:34:56;;;;;;;0.60;0.20;;;14.90;1.00;;;;;;5057277;28;20466;-73
2022/09/26 13:37:36;;;;;;;0.60;0.10;;;15.10;1.00;;;;;;5056968;28;20443;-75
2022/09/26 13:40:19;;;;;;;0.60;0.10;;;15.10;1.00;;;;;;4996646;28;21110;-75
2022/09/26 13:42:51;;;;;;;0.60;0.10;;;;;;;;;;5053414;28;20470;-75
2022/09/26 13:45:26;;;;;;;0.60;0.10;;;15.20;1.00;;;;;;5053791;28;20536;-74